Time;durP1;ratioP1;P1;durP2;ratioP2;P2;SDS_P1;SDS_P2;PMS_P1;PMS_P2;Temp;Humidity;BMP_temperature;BMP_pressure;BME280_temperature;BME280_humidity;BME280_pressure;Samples;Min_cycle;Max_cycle;Signal;HPM_P1;HPM_P2
2022/06/25 00:02:43;;;;;;;0.00;0.00;;;17.20;99.90;;;;;;6208474;28;20061;-78
2022/06/25 00:05:45;;;;;;;0.00;0.00;;;17.10;99.90;;;;;;6208731;28;20046;-78
2022/06/25 00:08:48;;;;;;;0.00;0.00;;;17.10;99.90;;;;;;6205596;28;20046;-78
2022/06/25 00:15:10;;;;;;;0.00;0.00;;;17.10;99.90;;;;;;6207253;28;20137;-79
2022/06/25 00:18:14;;;;;;;0.00;0.00;;;17.10;99.90;;;;;;6207568;28;20050;-78
2022/06/25 00:21:16;;;;;;;0.00;0.00;;;17.10;99.90;;;;;;6208081;28;20046;-77
2022/06/25 00:24:17;;;;;;;0.00;0.00;;;17.10;99.90;;;;;;6206237;28;20034;-78
2022/06/25 00:27:19;;;;;;;0.00;0.00;;;17.00;99.90;;;;;;6204905;28;20054;-78
2022/06/25 00:30:21;;;;;;;0.00;0.00;;;17.00;99.90;;;;;;6185920;28;20046;-78
2022/06/25 00:33:24;;;;;;;0.00;0.00;;;16.90;99.90;;;;;;6182257;28;20051;-79
2022/06/25 00:36:26;;;;;;;0.00;0.00;;;16.90;99.90;;;;;;6182816;28;20055;-78
2022/06/25 00:39:28;;;;;;;0.00;0.00;;;16.80;99.90;;;;;;6182560;28;20057;-78
2022/06/25 00:42:29;;;;;;;0.00;0.00;;;16.80;99.90;;;;;;6183217;28;20051;-79
2022/06/25 00:45:31;;;;;;;0.00;0.00;;;16.80;99.90;;;;;;6184205;28;20047;-78
2022/06/25 00:48:34;;;;;;;0.00;0.00;;;16.80;99.90;;;;;;6182503;28;20061;-79
2022/06/25 00:51:40;;;;;;;0.00;0.00;;;16.80;99.90;;;;;;6184230;28;20050;-78
2022/06/25 00:54:49;;;;;;;0.00;0.00;;;16.80;99.90;;;;;;6226860;28;20046;-79
2022/06/25 00:57:51;;;;;;;0.00;0.00;;;16.80;99.90;;;;;;6228642;28;20050;-78
2022/06/25 01:00:53;;;;;;;0.00;0.00;;;16.80;99.90;;;;;;6231152;28;20046;-78
2022/06/25 01:03:56;;;;;;;0.00;0.00;;;16.80;99.90;;;;;;6231018;28;20054;-78
2022/06/25 01:06:58;;;;;;;0.00;0.00;;;16.70;99.90;;;;;;6231734;28;20064;-78
2022/06/25 01:10:00;;;;;;;0.00;0.00;;;16.70;99.90;;;;;;6228792;28;20414;-77
2022/06/25 01:13:02;;;;;;;0.00;0.00;;;16.70;99.90;;;;;;6229933;28;20045;-78
2022/06/25 01:16:04;;;;;;;0.00;0.00;;;16.70;99.90;;;;;;6231703;28;20054;-78
2022/06/25 01:19:08;;;;;;;0.10;0.10;;;16.70;99.90;;;;;;6222187;28;20057;-78
2022/06/25 01:22:11;;;;;;;0.00;0.00;;;16.70;99.90;;;;;;6206778;28;20047;-79
2022/06/25 01:25:15;;;;;;;0.00;0.00;;;16.70;99.90;;;;;;6208920;28;20056;-78
2022/06/25 01:28:17;;;;;;;0.00;0.00;;;16.70;99.90;;;;;;6212945;28;20050;-77
2022/06/25 01:31:18;;;;;;;0.00;0.00;;;16.60;99.90;;;;;;6213321;28;20052;-78
2022/06/25 01:34:20;;;;;;;0.00;0.00;;;16.60;99.90;;;;;;6212054;28;20050;-78
2022/06/25 01:37:23;;;;;;;0.00;0.00;;;16.60;99.90;;;;;;6212893;28;20073;-78
2022/06/25 01:40:25;;;;;;;0.00;0.00;;;16.50;99.90;;;;;;6211162;28;20176;-77
2022/06/25 01:43:27;;;;;;;0.00;0.00;;;16.50;99.90;;;;;;6212221;28;20057;-78
2022/06/25 01:46:29;;;;;;;3.38;0.40;;;16.50;99.90;;;;;;6209804;28;20048;-78
2022/06/25 01:49:30;;;;;;;8.00;0.90;;;16.40;99.90;;;;;;6211140;28;20057;-77
2022/06/25 01:52:34;;;;;;;0.90;0.52;;;16.40;99.90;;;;;;6211173;28;20054;-77
2022/06/25 01:55:37;;;;;;;1.95;0.63;;;16.40;99.90;;;;;;6212293;28;20061;-77
2022/06/25 01:58:39;;;;;;;8.65;1.60;;;16.40;99.90;;;;;;6211075;28;20453;-77
2022/06/25 02:01:40;;;;;;;5.32;1.20;;;16.40;99.90;;;;;;6210032;28;20050;-78
2022/06/25 02:04:42;;;;;;;5.65;1.98;;;16.30;99.90;;;;;;6210485;28;20046;-77
2022/06/25 02:07:45;;;;;;;4.50;1.63;;;16.30;99.90;;;;;;6210587;28;20437;-78
2022/06/25 02:10:48;;;;;;;5.68;1.48;;;16.30;99.90;;;;;;6209985;28;20436;-78
2022/06/25 02:13:50;;;;;;;3.97;1.55;;;16.30;99.90;;;;;;6210546;28;20483;-77
2022/06/25 02:16:51;;;;;;;2.20;1.67;;;16.30;99.90;;;;;;6210168;28;20066;-79
2022/06/25 02:19:53;;;;;;;5.75;2.03;;;16.30;99.90;;;;;;6213034;28;20057;-79
2022/06/25 02:22:56;;;;;;;4.93;1.50;;;16.30;99.90;;;;;;6213339;28;20427;-78
2022/06/25 02:25:58;;;;;;;8.30;2.30;;;16.30;99.90;;;;;;6211327;28;20050;-78
2022/06/25 02:29:00;;;;;;;5.95;1.95;;;16.30;99.90;;;;;;6211541;28;20045;-79
2022/06/25 02:32:02;;;;;;;3.35;2.47;;;16.30;99.90;;;;;;6211499;28;20042;-79
2022/06/25 02:35:04;;;;;;;5.57;2.92;;;16.30;99.90;;;;;;6212876;28;20042;-79
2022/06/25 02:38:07;;;;;;;6.93;2.88;;;16.30;99.90;;;;;;6212246;28;20053;-79
2022/06/25 02:41:09;;;;;;;7.57;2.58;;;16.30;99.90;;;;;;6213347;28;20057;-78
2022/06/25 02:44:10;;;;;;;6.72;2.85;;;16.30;99.90;;;;;;6213052;28;20102;-79
2022/06/25 02:47:12;;;;;;;7.03;2.63;;;16.30;99.90;;;;;;6213653;28;20141;-78
2022/06/25 02:50:14;;;;;;;6.43;2.40;;;16.30;99.90;;;;;;6211558;28;20052;-78
2022/06/25 02:53:17;;;;;;;5.22;2.50;;;16.30;99.90;;;;;;6212831;28;20054;-77
2022/06/25 02:59:39;;;;;;;7.90;2.67;;;16.30;99.90;;;;;;6214048;28;20050;-78
2022/06/25 03:02:40;;;;;;;4.97;2.35;;;16.20;99.90;;;;;;6213215;28;20050;-78
2022/06/25 03:05:42;;;;;;;13.73;3.40;;;16.20;99.90;;;;;;6212136;28;20054;-78
2022/06/25 03:08:45;;;;;;;4.88;2.88;;;16.10;99.90;;;;;;6210890;28;20038;-78
2022/06/25 03:11:47;;;;;;;7.85;2.63;;;16.10;99.90;;;;;;6211477;28;20047;-79
2022/06/25 03:14:49;;;;;;;6.70;2.83;;;16.00;99.90;;;;;;6212969;28;20050;-78
2022/06/25 03:17:50;;;;;;;4.93;2.60;;;16.00;99.90;;;;;;6214420;28;20529;-77
2022/06/25 03:20:52;;;;;;;8.60;3.20;;;15.90;99.90;;;;;;6213328;28;20527;-77
2022/06/25 03:23:55;;;;;;;5.22;3.08;;;15.90;99.90;;;;;;6225998;28;20050;-78
2022/06/25 03:26:57;;;;;;;7.50;3.63;;;15.90;99.90;;;;;;6233276;28;20052;-77
2022/06/25 03:29:59;;;;;;;7.45;3.33;;;15.80;99.90;;;;;;6233338;28;20045;-77
2022/06/25 03:33:00;;;;;;;5.25;3.40;;;15.80;99.90;;;;;;6231510;28;20041;-77
2022/06/25 03:36:02;;;;;;;9.25;3.50;;;15.70;99.90;;;;;;6231811;28;20092;-78
2022/06/25 03:39:06;;;;;;;6.95;3.30;;;15.80;99.90;;;;;;6232204;28;20049;-79
2022/06/25 03:42:07;;;;;;;4.85;3.08;;;15.70;99.90;;;;;;6230215;28;20049;-81
2022/06/25 03:45:10;;;;;;;10.80;3.53;;;15.80;99.90;;;;;;6229656;28;20575;-78
2022/06/25 03:48:12;;;;;;;6.72;3.85;;;15.80;99.90;;;;;;6227619;28;20084;-80
2022/06/25 03:51:14;;;;;;;5.38;3.25;;;15.90;99.90;;;;;;6228997;28;20049;-78
2022/06/25 03:54:17;;;;;;;5.35;2.83;;;15.80;99.90;;;;;;6228791;28;20103;-79
2022/06/25 03:57:18;;;;;;;4.28;3.13;;;15.90;99.90;;;;;;6228421;28;20144;-80
2022/06/25 04:00:20;;;;;;;6.78;2.75;;;15.90;99.90;;;;;;6228947;28;20042;-80
2022/06/25 04:03:22;;;;;;;3.83;2.70;;;15.90;99.90;;;;;;6229133;28;20060;-80
2022/06/25 04:06:23;;;;;;;6.38;3.05;;;15.90;99.90;;;;;;6227755;28;20218;-80
2022/06/25 04:09:27;;;;;;;6.70;2.78;;;16.00;99.90;;;;;;6228092;28;20053;-79
2022/06/25 04:12:29;;;;;;;3.33;2.25;;;16.30;99.90;;;;;;6227735;28;20049;-80
2022/06/25 04:15:30;;;;;;;3.53;2.53;;;17.50;99.90;;;;;;6228198;28;20054;-80
2022/06/25 04:18:32;;;;;;;3.92;1.83;;;18.90;99.90;;;;;;6227590;28;20049;-80
2022/06/25 04:21:34;;;;;;;2.72;1.65;;;20.30;99.90;;;;;;6225541;28;20053;-80
2022/06/25 04:24:39;;;;;;;1.48;1.08;;;21.30;99.70;;;;;;6210283;28;20062;-81
2022/06/25 04:30:59;;;;;;;5.32;1.55;;;20.90;99.90;;;;;;6202995;28;20042;-80
2022/06/25 04:34:01;;;;;;;1.65;1.23;;;21.00;99.90;;;;;;6203193;28;20050;-80
2022/06/25 04:37:03;;;;;;;8.40;1.60;;;21.00;99.90;;;;;;6202629;28;20046;-80
2022/06/25 04:40:07;;;;;;;1.83;1.13;;;21.80;99.90;;;;;;6203456;28;20054;-80
2022/06/25 04:43:09;;;;;;;3.55;1.08;;;23.20;96.90;;;;;;6203302;28;20066;-81
2022/06/25 04:46:11;;;;;;;2.35;0.70;;;24.70;94.70;;;;;;6203418;28;20046;-80
2022/06/25 04:49:12;;;;;;;0.70;0.60;;;26.10;92.60;;;;;;6203374;28;20064;-80
2022/06/25 04:52:14;;;;;;;2.05;0.70;;;27.10;91.10;;;;;;6203576;28;20069;-81
2022/06/25 04:55:17;;;;;;;1.92;0.77;;;28.10;90.30;;;;;;6203446;28;20054;-81
2022/06/25 04:58:19;;;;;;;4.05;0.50;;;29.10;88.00;;;;;;6202642;28;20046;-81
2022/06/25 05:01:21;;;;;;;3.58;0.75;;;29.90;84.70;;;;;;6203415;28;20045;-81
2022/06/25 05:04:23;;;;;;;4.88;0.60;;;30.70;82.90;;;;;;6204047;28;20419;-80
2022/06/25 05:07:25;;;;;;;2.35;0.82;;;31.40;80.60;;;;;;6203617;28;20046;-81
2022/06/25 05:10:28;;;;;;;1.90;0.50;;;32.00;77.40;;;;;;6203607;28;20054;-79
2022/06/25 05:13:30;;;;;;;5.43;0.75;;;32.60;73.80;;;;;;6204579;28;20046;-82
2022/06/25 05:16:31;;;;;;;1.75;0.50;;;33.40;70.80;;;;;;6204548;28;20050;-82
2022/06/25 05:19:33;;;;;;;5.35;0.50;;;34.30;67.10;;;;;;6204652;28;20062;-79
2022/06/25 05:22:35;;;;;;;4.80;0.60;;;35.50;62.90;;;;;;6205605;28;20043;-80
2022/06/25 05:25:39;;;;;;;2.95;0.73;;;36.80;58.60;;;;;;6215176;28;20121;-83
2022/06/25 05:28:41;;;;;;;2.03;1.52;;;37.90;55.10;;;;;;6209140;28;20046;-82
2022/06/25 05:31:43;;;;;;;5.57;0.43;;;38.30;51.80;;;;;;6210679;28;20051;-82
2022/06/25 05:34:45;;;;;;;2.25;0.50;;;37.90;52.70;;;;;;6208618;28;20074;-83
2022/06/25 05:37:47;;;;;;;1.38;0.40;;;37.80;52.60;;;;;;6209619;28;20054;-82
2022/06/25 05:40:50;;;;;;;3.30;0.40;;;37.90;51.10;;;;;;6209795;28;20046;-82
2022/06/25 05:43:52;;;;;;;0.90;0.25;;;38.00;47.90;;;;;;6208848;28;20057;-83
2022/06/25 05:46:53;;;;;;;2.22;0.30;;;38.60;48.00;;;;;;6207315;28;20062;-82
2022/06/25 05:49:55;;;;;;;1.55;0.32;;;39.70;46.20;;;;;;6206803;28;20106;-80
2022/06/25 05:52:57;;;;;;;2.35;0.30;;;40.80;44.00;;;;;;6206540;28;20052;-82
2022/06/25 05:56:00;;;;;;;0.63;0.30;;;41.40;41.80;;;;;;6206560;28;20060;-81
2022/06/25 05:59:02;;;;;;;4.45;0.60;;;42.00;40.50;;;;;;6207345;28;20047;-82
2022/06/25 06:02:04;;;;;;;1.95;0.35;;;42.30;39.10;;;;;;6206742;28;20050;-82
2022/06/25 06:05:06;;;;;;;2.05;0.38;;;42.30;38.10;;;;;;6205932;28;20050;-82
2022/06/25 06:08:08;;;;;;;3.30;0.30;;;42.40;37.70;;;;;;6206579;28;20393;-81
2022/06/25 06:11:14;;;;;;;0.95;0.30;;;42.70;36.80;;;;;;6208623;28;20046;-82
2022/06/25 06:14:15;;;;;;;1.30;0.15;;;43.20;37.00;;;;;;6210275;28;20420;-81
2022/06/25 06:17:17;;;;;;;2.83;0.30;;;43.50;36.20;;;;;;6210343;28;20056;-81
2022/06/25 06:20:19;;;;;;;2.67;0.57;;;43.20;35.80;;;;;;6210322;28;20046;-82
2022/06/25 06:23:21;;;;;;;1.23;0.60;;;43.20;36.00;;;;;;6210282;28;20082;-82
2022/06/25 06:26:24;;;;;;;0.50;0.17;;;43.50;35.90;;;;;;6222877;28;20050;-81
2022/06/25 06:29:26;;;;;;;0.30;0.28;;;43.80;35.40;;;;;;6235232;28;20050;-79
2022/06/25 06:32:27;;;;;;;0.95;0.10;;;44.00;35.00;;;;;;6235606;28;20046;-82
2022/06/25 06:35:29;;;;;;;0.43;0.20;;;44.30;35.00;;;;;;6235519;28;20049;-82
2022/06/25 06:38:31;;;;;;;0.68;0.35;;;44.50;35.00;;;;;;6235467;28;20053;-82
2022/06/25 06:41:34;;;;;;;1.30;0.20;;;44.40;34.20;;;;;;6235386;28;20041;-81
2022/06/25 06:44:36;;;;;;;1.35;0.10;;;44.30;34.10;;;;;;6234013;28;20057;-79
2022/06/25 06:47:38;;;;;;;2.45;0.30;;;43.80;34.40;;;;;;6234657;28;20064;-78
2022/06/25 06:50:40;;;;;;;3.42;0.50;;;43.40;34.60;;;;;;6233609;28;20046;-83
2022/06/25 06:53:41;;;;;;;2.38;0.30;;;42.80;34.60;;;;;;6234898;28;20507;-82
2022/06/25 06:56:44;;;;;;;0.57;0.15;;;42.50;35.00;;;;;;6234142;28;20507;-80
2022/06/25 06:59:46;;;;;;;0.73;0.20;;;42.10;34.90;;;;;;6235613;28;20053;-81
2022/06/25 07:02:48;;;;;;;1.38;0.57;;;41.40;35.60;;;;;;6236244;28;20046;-81
2022/06/25 07:05:49;;;;;;;2.20;0.22;;;40.80;36.30;;;;;;6209777;28;20060;-82
2022/06/25 07:08:51;;;;;;;0.52;0.30;;;41.20;36.30;;;;;;6235587;28;20052;-84
2022/06/25 07:11:55;;;;;;;4.53;0.35;;;41.90;34.70;;;;;;6234897;28;20428;-85
2022/06/25 07:14:56;;;;;;;5.68;0.40;;;40.80;36.00;;;;;;6223495;28;20061;-78
2022/06/25 07:17:58;;;;;;;1.38;0.20;;;38.00;38.20;;;;;;6206873;28;20415;-80
2022/06/25 07:21:00;;;;;;;0.52;0.32;;;35.60;41.60;;;;;;6213506;28;20043;-82
2022/06/25 07:24:01;;;;;;;3.70;0.25;;;33.80;44.80;;;;;;6205613;28;20050;-83
2022/06/25 07:27:05;;;;;;;1.95;0.30;;;32.30;47.00;;;;;;6214147;28;20136;-82
2022/06/25 07:30:08;;;;;;;0.32;0.10;;;31.10;49.70;;;;;;6227807;28;20045;-80
2022/06/25 07:33:10;;;;;;;0.65;0.20;;;30.50;51.80;;;;;;6225672;28;20069;-81
2022/06/25 07:36:12;;;;;;;0.22;0.10;;;30.00;52.50;;;;;;6226541;28;20052;-80
2022/06/25 07:39:14;;;;;;;0.50;0.30;;;29.50;54.20;;;;;;6226550;28;20050;-81
2022/06/25 07:42:17;;;;;;;0.50;0.20;;;29.00;55.00;;;;;;6226237;28;20045;-83
2022/06/25 07:45:19;;;;;;;3.85;0.50;;;28.60;57.30;;;;;;6220800;28;20054;-80
2022/06/25 07:48:20;;;;;;;3.22;0.38;;;28.50;58.90;;;;;;6221046;28;20524;-81
2022/06/25 07:54:41;;;;;;;0.45;0.20;;;28.10;59.20;;;;;;6226306;28;20508;-81
2022/06/25 07:57:44;;;;;;;3.17;0.40;;;28.00;59.80;;;;;;6225739;28;20053;-80
2022/06/25 08:00:46;;;;;;;2.90;0.30;;;28.00;60.30;;;;;;6225735;28;20053;-82
2022/06/25 08:03:48;;;;;;;1.40;0.50;;;28.10;60.60;;;;;;6225804;28;20057;-81
2022/06/25 08:06:50;;;;;;;3.80;0.50;;;28.10;60.60;;;;;;6226476;28;20096;-81
2022/06/25 08:09:52;;;;;;;2.58;0.30;;;28.00;59.50;;;;;;6224618;28;20053;-80
2022/06/25 08:12:55;;;;;;;0.80;0.20;;;27.90;60.90;;;;;;6225876;28;20111;-83
2022/06/25 08:15:57;;;;;;;0.60;0.40;;;27.90;61.30;;;;;;6221344;28;20075;-83
2022/06/25 08:18:58;;;;;;;1.65;0.60;;;28.00;61.50;;;;;;6218852;28;20487;-83
2022/06/25 08:22:00;;;;;;;0.98;0.38;;;28.20;61.70;;;;;;6227355;28;20046;-79
2022/06/25 08:25:02;;;;;;;1.95;0.47;;;28.50;60.60;;;;;;6226733;28;20056;-82
2022/06/25 08:28:05;;;;;;;2.10;0.38;;;28.60;60.20;;;;;;6214153;28;20060;-81
2022/06/25 08:31:07;;;;;;;2.75;0.35;;;28.60;61.00;;;;;;6228283;28;20049;-82
2022/06/25 08:34:09;;;;;;;0.95;0.47;;;28.70;59.70;;;;;;6227361;28;20046;-79
2022/06/25 08:37:10;;;;;;;0.70;0.60;;;28.80;59.60;;;;;;6226522;28;20042;-81
2022/06/25 08:40:13;;;;;;;3.60;0.30;;;28.90;58.70;;;;;;6226516;28;20046;-83
2022/06/25 08:43:16;;;;;;;3.03;0.43;;;29.00;59.10;;;;;;6226531;28;20507;-81
2022/06/25 08:46:20;;;;;;;2.20;0.32;;;29.30;59.40;;;;;;6220138;28;20064;-82
2022/06/25 08:49:22;;;;;;;2.90;0.50;;;29.60;58.10;;;;;;6217428;28;20041;-83
2022/06/25 08:52:24;;;;;;;0.57;0.20;;;29.90;57.10;;;;;;6225458;28;20415;-80
2022/06/25 08:55:30;;;;;;;0.95;0.35;;;30.00;57.30;;;;;;6224591;28;20054;-81
2022/06/25 08:58:34;;;;;;;4.00;0.40;;;29.90;56.60;;;;;;6223870;28;20054;-82
2022/06/25 09:01:36;;;;;;;1.02;0.30;;;29.70;55.60;;;;;;6224409;28;20057;-80
2022/06/25 09:04:37;;;;;;;1.55;0.50;;;29.50;55.50;;;;;;6223833;28;20058;-81
2022/06/25 09:07:51;;;;;;;4.57;0.30;;;29.20;56.00;;;;;;6225240;28;20160;-85
2022/06/25 09:10:55;;;;;;;1.10;0.63;;;29.30;56.20;;;;;;6225005;28;20046;-81
2022/06/25 09:14:00;;;;;;;1.45;0.20;;;29.60;56.90;;;;;;6206335;28;20112;-80
2022/06/25 09:17:04;;;;;;;5.43;0.60;;;29.80;55.50;;;;;;6208165;28;20061;-80
2022/06/25 09:20:06;;;;;;;0.63;0.30;;;30.10;55.10;;;;;;6218708;28;20050;-81
2022/06/25 09:23:08;;;;;;;1.90;0.57;;;30.40;54.90;;;;;;6200755;28;20138;-79
2022/06/25 09:26:11;;;;;;;1.10;0.38;;;30.80;53.90;;;;;;6200409;28;20488;-82
2022/06/25 09:29:14;;;;;;;3.15;0.20;;;31.00;52.50;;;;;;6201340;28;20358;-81
2022/06/25 09:32:17;;;;;;;1.08;0.28;;;30.90;52.10;;;;;;6200352;28;20057;-82
2022/06/25 09:35:31;;;;;;;1.02;0.30;;;30.70;52.70;;;;;;6202105;28;20114;-80
2022/06/25 09:38:33;;;;;;;2.10;0.70;;;30.30;52.90;;;;;;6200120;28;20057;-79
2022/06/25 09:41:53;;;;;;;0.57;0.20;;;30.10;53.10;;;;;;6200077;28;20050;-79
2022/06/25 09:45:09;;;;;;;0.93;0.45;;;30.20;53.20;;;;;;6198626;28;20097;-79
2022/06/25 09:48:18;;;;;;;0.68;0.30;;;30.40;53.50;;;;;;6217353;28;20071;-78
2022/06/25 09:51:23;;;;;;;0.40;0.20;;;30.60;51.30;;;;;;6228182;28;20050;-80
2022/06/25 09:54:25;;;;;;;1.17;0.25;;;30.70;52.30;;;;;;6226771;28;20139;-80
2022/06/25 09:57:27;;;;;;;2.05;0.32;;;30.60;51.30;;;;;;6226090;28;20500;-80
2022/06/25 10:00:32;;;;;;;8.85;0.55;;;30.40;52.40;;;;;;6225993;28;20045;-81
2022/06/25 10:03:35;;;;;;;0.57;0.30;;;30.10;51.30;;;;;;6228261;28;20056;-81
2022/06/25 10:06:40;;;;;;;1.60;0.43;;;29.90;52.70;;;;;;6225741;28;20052;-81
2022/06/25 10:09:44;;;;;;;1.48;0.60;;;29.90;53.10;;;;;;6225892;28;20050;-79
2022/06/25 10:12:47;;;;;;;2.13;0.57;;;30.10;52.40;;;;;;6227171;28;20156;-80
2022/06/25 10:15:51;;;;;;;1.83;0.98;;;30.70;51.40;;;;;;6223924;28;20467;-82
2022/06/25 10:18:54;;;;;;;3.25;0.40;;;31.40;50.60;;;;;;6209333;28;20057;-83
2022/06/25 10:21:56;;;;;;;4.70;0.40;;;31.30;49.90;;;;;;6203521;28;20129;-83
2022/06/25 10:25:00;;;;;;;0.50;0.32;;;31.10;51.30;;;;;;6205102;28;20053;-83
2022/06/25 10:28:08;;;;;;;0.63;0.38;;;31.20;51.20;;;;;;6214787;28;20050;-83
2022/06/25 10:31:16;;;;;;;1.02;0.30;;;31.00;51.00;;;;;;6224403;28;20131;-83
2022/06/25 10:34:18;;;;;;;3.15;1.25;;;30.70;51.30;;;;;;6227320;28;20046;-81
2022/06/25 10:37:20;;;;;;;3.88;0.50;;;30.40;51.60;;;;;;6206652;28;20073;-81
2022/06/25 10:40:22;;;;;;;2.28;0.70;;;30.20;52.30;;;;;;6204593;28;20062;-84
2022/06/25 10:43:41;;;;;;;0.40;0.30;;;30.50;51.60;;;;;;6204779;28;20069;-83
2022/06/25 10:46:45;;;;;;;1.00;0.63;;;30.70;51.10;;;;;;6214948;28;20114;-82
2022/06/25 10:49:47;;;;;;;1.85;0.60;;;30.60;51.50;;;;;;6221990;28;20061;-81
2022/06/25 10:53:16;;;;;;;0.68;0.40;;;30.50;51.50;;;;;;6222123;28;20092;-82
2022/06/25 10:56:18;;;;;;;1.90;0.52;;;30.40;51.60;;;;;;6203506;28;20072;-81
2022/06/25 10:59:47;;;;;;;2.40;0.90;;;29.90;52.00;;;;;;6202036;28;20073;-83
2022/06/25 11:02:55;;;;;;;0.80;0.57;;;29.60;54.20;;;;;;6192554;28;20054;-83
2022/06/25 11:06:00;;;;;;;0.95;0.35;;;29.60;54.40;;;;;;6204630;28;20054;-84
2022/06/25 11:09:11;;;;;;;2.38;0.82;;;29.70;53.70;;;;;;6202976;28;20050;-83
2022/06/25 11:12:13;;;;;;;2.97;0.93;;;29.40;53.80;;;;;;6202187;28;20064;-85
2022/06/25 11:15:14;;;;;;;3.47;0.73;;;29.50;54.50;;;;;;6203585;28;20424;-85
2022/06/25 11:18:18;;;;;;;1.15;0.43;;;30.00;54.10;;;;;;6213031;28;20053;-82
2022/06/25 11:21:31;;;;;;;1.35;0.63;;;30.30;51.60;;;;;;6224508;28;20054;-83
2022/06/25 11:24:34;;;;;;;1.48;0.50;;;30.40;51.70;;;;;;6228404;28;20063;-83
2022/06/25 11:30:56;;;;;;;1.75;0.55;;;31.40;50.20;;;;;;6214537;28;20046;-80
2022/06/25 11:34:02;;;;;;;0.65;0.50;;;31.40;49.30;;;;;;6212054;28;20177;-83
2022/06/25 11:37:07;;;;;;;2.30;0.55;;;31.20;49.50;;;;;;6203382;28;20050;-85
2022/06/25 11:40:15;;;;;;;1.55;0.70;;;30.90;50.80;;;;;;6201579;28;20054;-85
2022/06/25 11:43:17;;;;;;;0.98;0.30;;;30.60;50.10;;;;;;6203890;28;20077;-84
2022/06/25 11:46:19;;;;;;;1.58;0.47;;;30.10;50.30;;;;;;6208687;28;20043;-85
2022/06/25 11:49:23;;;;;;;2.53;0.47;;;29.90;51.20;;;;;;6226763;28;20045;-82
2022/06/25 11:52:27;;;;;;;1.20;0.60;;;29.90;51.70;;;;;;6225966;28;20060;-82
2022/06/25 11:55:28;;;;;;;2.78;0.60;;;30.00;51.30;;;;;;6228796;28;20065;-84
2022/06/25 11:58:32;;;;;;;1.08;0.40;;;30.70;51.90;;;;;;6226711;28;20133;-82
2022/06/25 12:01:34;;;;;;;1.95;0.50;;;31.50;49.00;;;;;;6225194;28;20050;-81
2022/06/25 12:04:48;;;;;;;1.17;0.47;;;32.00;47.10;;;;;;6226953;28;20495;-82
2022/06/25 12:07:50;;;;;;;1.65;0.20;;;32.10;46.60;;;;;;6225749;28;20085;-83
2022/06/25 12:10:53;;;;;;;2.88;0.40;;;32.50;45.90;;;;;;6225058;28;20149;-82
2022/06/25 12:13:55;;;;;;;1.88;0.32;;;32.30;45.70;;;;;;6225014;28;20065;-82
2022/06/25 12:16:57;;;;;;;12.57;1.85;;;32.20;44.50;;;;;;6213833;28;20265;-82
2022/06/25 12:20:05;;;;;;;1.05;0.40;;;31.90;45.50;;;;;;6223653;28;20053;-81
2022/06/25 12:23:07;;;;;;;7.40;0.70;;;32.10;45.20;;;;;;6229133;28;20440;-83
2022/06/25 12:26:09;;;;;;;2.03;0.47;;;32.60;45.00;;;;;;6228303;28;20132;-82
2022/06/25 12:29:13;;;;;;;1.17;0.43;;;33.20;44.70;;;;;;6228728;28;20100;-81
2022/06/25 12:32:15;;;;;;;0.73;0.40;;;33.40;42.30;;;;;;6213591;28;20042;-83
2022/06/25 12:35:19;;;;;;;1.00;0.38;;;33.50;42.80;;;;;;6225739;28;20056;-82
2022/06/25 12:38:21;;;;;;;6.20;1.25;;;33.30;43.60;;;;;;6224919;28;20046;-82
2022/06/25 12:41:46;;;;;;;0.30;0.20;;;33.50;43.20;;;;;;6225068;28;20064;-83
2022/06/25 12:44:48;;;;;;;0.50;0.20;;;33.70;42.40;;;;;;6225395;28;20072;-82
2022/06/25 12:47:50;;;;;;;5.80;0.82;;;33.60;42.50;;;;;;6211093;28;20054;-82
2022/06/25 12:50:53;;;;;;;1.05;0.45;;;33.70;42.90;;;;;;6201020;28;20069;-83
2022/06/25 12:53:57;;;;;;;1.38;0.40;;;34.10;42.50;;;;;;6200114;28;20047;-83
2022/06/25 12:56:58;;;;;;;1.17;0.35;;;34.20;42.00;;;;;;6199332;28;20512;-83
2022/06/25 13:00:03;;;;;;;1.08;0.40;;;34.30;41.80;;;;;;6199825;28;20079;-82
2022/06/25 13:03:05;;;;;;;0.70;0.30;;;34.30;41.90;;;;;;6200329;28;20158;-82
2022/06/25 13:06:08;;;;;;;6.85;0.70;;;33.90;41.50;;;;;;6207171;28;20046;-83
2022/06/25 13:09:10;;;;;;;3.03;0.30;;;33.60;42.00;;;;;;6224217;28;20120;-83
2022/06/25 13:12:12;;;;;;;3.10;0.40;;;34.10;42.10;;;;;;6221452;28;20464;-83
2022/06/25 13:15:14;;;;;;;1.85;0.38;;;34.60;41.10;;;;;;6201086;28;20051;-83
2022/06/25 13:18:15;;;;;;;0.40;0.30;;;34.80;40.70;;;;;;6207433;28;20042;-82
2022/06/25 13:21:18;;;;;;;2.30;0.10;;;34.90;40.30;;;;;;6204373;28;20394;-83
2022/06/25 13:24:20;;;;;;;2.20;0.38;;;34.80;40.30;;;;;;6204644;28;20042;-83
2022/06/25 13:27:22;;;;;;;2.80;0.47;;;34.40;40.50;;;;;;6205336;28;20508;-83
2022/06/25 13:30:24;;;;;;;2.15;0.40;;;34.10;40.50;;;;;;6205230;28;20094;-82
2022/06/25 13:33:25;;;;;;;0.50;0.20;;;33.80;41.60;;;;;;6217407;28;20045;-81
2022/06/25 13:36:29;;;;;;;2.10;0.55;;;33.70;41.50;;;;;;6229341;28;20049;-83
2022/06/25 13:39:30;;;;;;;0.85;0.40;;;33.50;41.60;;;;;;6231598;28;20072;-83
2022/06/25 13:42:32;;;;;;;0.95;0.40;;;33.30;43.20;;;;;;6230516;28;20057;-82
2022/06/25 13:45:34;;;;;;;3.92;0.75;;;33.70;42.90;;;;;;6225433;28;20401;-82
2022/06/25 13:48:36;;;;;;;0.75;0.55;;;34.20;42.80;;;;;;6221895;28;20045;-82
2022/06/25 13:51:39;;;;;;;1.75;0.40;;;34.40;40.50;;;;;;6230969;28;20211;-83
2022/06/25 13:54:41;;;;;;;1.10;0.47;;;33.80;41.50;;;;;;6229778;28;20042;-82
2022/06/25 13:57:43;;;;;;;0.35;0.20;;;33.40;41.50;;;;;;6229186;28;20050;-85
2022/06/25 14:00:45;;;;;;;0.98;0.35;;;33.00;42.10;;;;;;6231960;28;20057;-83
2022/06/25 14:03:47;;;;;;;2.38;1.25;;;32.90;43.10;;;;;;6232244;28;20050;-83
2022/06/25 14:06:50;;;;;;;0.93;0.60;;;32.90;43.40;;;;;;6229624;28;20049;-82
2022/06/25 14:09:52;;;;;;;2.47;0.40;;;32.90;42.70;;;;;;6230977;28;20046;-84
2022/06/25 14:12:54;;;;;;;2.13;0.60;;;32.80;42.30;;;;;;6230661;28;20057;-84
2022/06/25 14:15:56;;;;;;;2.03;0.45;;;32.60;42.80;;;;;;6226925;28;20090;-83
2022/06/25 14:18:57;;;;;;;2.10;0.40;;;32.10;43.40;;;;;;6217853;28;20052;-84
2022/06/25 14:22:00;;;;;;;1.17;0.35;;;31.80;44.10;;;;;;6208032;28;20046;-85
2022/06/25 14:28:23;;;;;;;1.15;0.40;;;31.50;45.00;;;;;;6210136;28;20050;-84
2022/06/25 14:31:25;;;;;;;2.03;0.40;;;31.30;45.00;;;;;;6206085;28;20073;-84
2022/06/25 14:34:27;;;;;;;1.25;0.38;;;31.40;44.40;;;;;;6210141;28;20358;-84
2022/06/25 14:44:08;;;;;;;1.70;0.30;;;31.60;45.20;;;;;;6205594;28;20046;-83
2022/06/25 14:47:10;;;;;;;1.08;0.40;;;31.70;45.10;;;;;;6214276;28;20047;-83
2022/06/25 14:50:12;;;;;;;1.05;0.45;;;31.90;45.20;;;;;;6204563;28;20518;-84
2022/06/25 14:53:15;;;;;;;1.13;0.40;;;32.20;45.10;;;;;;6205757;28;20062;-83
2022/06/25 14:56:17;;;;;;;4.43;0.68;;;32.30;43.80;;;;;;6204571;28;20046;-83
2022/06/25 14:59:19;;;;;;;3.70;0.50;;;32.20;43.90;;;;;;6205336;28;20046;-83
2022/06/25 15:02:21;;;;;;;2.75;0.60;;;32.00;43.80;;;;;;6204398;28;20049;-82
2022/06/25 15:05:24;;;;;;;2.10;0.70;;;32.10;44.30;;;;;;6202255;28;20583;-83
2022/06/25 15:08:27;;;;;;;0.68;0.50;;;32.40;43.60;;;;;;6206864;28;20046;-83
2022/06/25 15:11:28;;;;;;;2.03;0.50;;;32.30;43.50;;;;;;6204903;28;20134;-84
2022/06/25 15:14:30;;;;;;;0.50;0.30;;;32.50;43.70;;;;;;6200413;28;20046;-83
2022/06/25 15:17:32;;;;;;;1.92;0.40;;;32.50;43.30;;;;;;6210475;28;20077;-83
2022/06/25 15:20:34;;;;;;;1.08;0.30;;;32.60;43.20;;;;;;6224925;28;20079;-82
2022/06/25 15:23:37;;;;;;;1.13;0.47;;;32.90;42.40;;;;;;6225023;28;20052;-84
2022/06/25 15:26:39;;;;;;;0.45;0.20;;;32.80;43.20;;;;;;6225906;28;20507;-82
2022/06/25 15:29:42;;;;;;;0.60;0.20;;;32.70;42.50;;;;;;6225131;28;20045;-82
2022/06/25 15:32:44;;;;;;;1.27;0.45;;;32.40;43.60;;;;;;6223407;28;20367;-83
2022/06/25 15:35:46;;;;;;;2.60;0.40;;;32.00;43.50;;;;;;6221145;28;20049;-81
2022/06/25 15:38:49;;;;;;;1.08;0.43;;;31.70;44.20;;;;;;6233106;28;20052;-83
2022/06/25 15:41:50;;;;;;;2.35;0.40;;;31.40;44.00;;;;;;6232613;28;20117;-80
2022/06/25 15:44:52;;;;;;;1.30;0.93;;;31.20;45.20;;;;;;6228980;28;20064;-83
2022/06/25 15:47:54;;;;;;;1.45;0.55;;;31.20;45.60;;;;;;6220853;28;20133;-82
2022/06/25 15:50:56;;;;;;;0.45;0.32;;;31.40;45.30;;;;;;6240305;28;20037;-79
2022/06/25 15:53:59;;;;;;;3.25;0.40;;;31.50;44.00;;;;;;6226311;28;20042;-80
2022/06/25 15:57:01;;;;;;;0.77;0.40;;;31.30;44.30;;;;;;6226353;28;20042;-82
2022/06/25 16:00:04;;;;;;;1.25;0.30;;;31.30;43.70;;;;;;6225369;28;20056;-82
2022/06/25 16:03:05;;;;;;;1.20;0.38;;;31.30;44.40;;;;;;6226069;28;20054;-80
2022/06/25 16:06:07;;;;;;;0.98;0.55;;;31.20;44.30;;;;;;6225127;28;20049;-81
2022/06/25 16:09:12;;;;;;;2.95;0.30;;;31.10;45.20;;;;;;6224276;28;20046;-80
2022/06/25 16:12:13;;;;;;;4.05;0.50;;;30.90;45.30;;;;;;6228759;28;20049;-83
2022/06/25 16:15:15;;;;;;;0.50;0.30;;;30.80;45.20;;;;;;6222470;28;20511;-80
2022/06/25 16:18:17;;;;;;;2.70;0.50;;;30.70;45.00;;;;;;6216658;28;20038;-80